Terminal Aerodrome Forecast
Issued by NWS

Home | Current Version | Previous Version | Text Only | Print | Product List | Glossary Off
Versions: 1 2 3 4 5 6 7 8 9 10 11 12 13 14 15 16 17 18

000
FTUS43 KTOP 050520
TAFFOE
TAF
KFOE 050520Z 0506/0606 12006KT 6SM HZ SKC
     FM051400 15007KT P6SM SKC
     FM051700 18014G22KT P6SM SCT035=

USA.gov is the U.S. government's official web portal to all federal, state and local government web resources and services.